sensor_id;sensor_type;location;lat;lon;timestamp;P1;durP1;ratioP1;P2;durP2;ratioP2
72095;SDS011;59968;51.084;16.748;2023-05-07T00:02:04;8.40;;;4.60;;
72095;SDS011;59968;51.084;16.748;2023-05-07T00:05:02;8.50;;;4.60;;
72095;SDS011;59968;51.084;16.748;2023-05-07T00:08:01;8.30;;;5.00;;
72095;SDS011;59968;51.084;16.748;2023-05-07T00:10:49;7.20;;;4.70;;
72095;SDS011;59968;51.084;16.748;2023-05-07T00:13:29;8.40;;;4.50;;
72095;SDS011;59968;51.084;16.748;2023-05-07T00:16:13;7.40;;;4.70;;
72095;SDS011;59968;51.084;16.748;2023-05-07T00:21:55;8.60;;;4.70;;
72095;SDS011;59968;51.084;16.748;2023-05-07T00:25:15;7.20;;;4.50;;
72095;SDS011;59968;51.084;16.748;2023-05-07T00:27:58;8.10;;;4.70;;
72095;SDS011;59968;51.084;16.748;2023-05-07T00:34:01;8.00;;;4.60;;
72095;SDS011;59968;51.084;16.748;2023-05-07T00:36:48;6.90;;;4.00;;
72095;SDS011;59968;51.084;16.748;2023-05-07T00:39:19;7.10;;;4.50;;
72095;SDS011;59968;51.084;16.748;2023-05-07T00:41:51;6.80;;;4.30;;
72095;SDS011;59968;51.084;16.748;2023-05-07T00:44:31;7.20;;;4.50;;
72095;SDS011;59968;51.084;16.748;2023-05-07T00:47:38;6.20;;;4.00;;
72095;SDS011;59968;51.084;16.748;2023-05-07T00:50:28;6.00;;;3.50;;
72095;SDS011;59968;51.084;16.748;2023-05-07T00:53:12;8.70;;;4.00;;
72095;SDS011;59968;51.084;16.748;2023-05-07T00:56:01;6.40;;;3.90;;
72095;SDS011;59968;51.084;16.748;2023-05-07T00:59:13;6.90;;;4.50;;
72095;SDS011;59968;51.084;16.748;2023-05-07T01:02:00;7.40;;;4.50;;
72095;SDS011;59968;51.084;16.748;2023-05-07T01:04:41;7.50;;;4.50;;
72095;SDS011;59968;51.084;16.748;2023-05-07T01:07:37;7.70;;;4.40;;
72095;SDS011;59968;51.084;16.748;2023-05-07T01:10:40;8.10;;;4.60;;
72095;SDS011;59968;51.084;16.748;2023-05-07T01:13:33;8.00;;;4.00;;
72095;SDS011;59968;51.084;16.748;2023-05-07T01:18:59;7.70;;;4.20;;
72095;SDS011;59968;51.084;16.748;2023-05-07T01:21:58;8.20;;;3.80;;
72095;SDS011;59968;51.084;16.748;2023-05-07T01:24:55;6.50;;;3.90;;
72095;SDS011;59968;51.084;16.748;2023-05-07T01:27:53;6.40;;;3.30;;
72095;SDS011;59968;51.084;16.748;2023-05-07T01:30:47;5.70;;;3.60;;
72095;SDS011;59968;51.084;16.748;2023-05-07T01:36:53;4.90;;;3.10;;
72095;SDS011;59968;51.084;16.748;2023-05-07T01:39:56;5.70;;;3.50;;
72095;SDS011;59968;51.084;16.748;2023-05-07T01:42:26;7.10;;;4.10;;
72095;SDS011;59968;51.084;16.748;2023-05-07T01:44:55;6.60;;;4.30;;
72095;SDS011;59968;51.084;16.748;2023-05-07T01:47:27;6.30;;;3.70;;
72095;SDS011;59968;51.084;16.748;2023-05-07T01:50:01;6.10;;;4.00;;
72095;SDS011;59968;51.084;16.748;2023-05-07T01:52:40;6.50;;;3.80;;
72095;SDS011;59968;51.084;16.748;2023-05-07T01:55:13;6.50;;;4.00;;
72095;SDS011;59968;51.084;16.748;2023-05-07T01:57:51;6.90;;;4.10;;
72095;SDS011;59968;51.084;16.748;2023-05-07T02:00:23;6.70;;;3.90;;
72095;SDS011;59968;51.084;16.748;2023-05-07T02:02:53;6.70;;;4.00;;
72095;SDS011;59968;51.084;16.748;2023-05-07T02:05:37;9.30;;;4.70;;
72095;SDS011;59968;51.084;16.748;2023-05-07T02:11:29;8.70;;;4.20;;
72095;SDS011;59968;51.084;16.748;2023-05-07T02:17:22;7.30;;;4.20;;
72095;SDS011;59968;51.084;16.748;2023-05-07T02:20:00;6.50;;;4.00;;
72095;SDS011;59968;51.084;16.748;2023-05-07T02:23:18;7.40;;;4.50;;
72095;SDS011;59968;51.084;16.748;2023-05-07T02:25:50;6.50;;;3.70;;
72095;SDS011;59968;51.084;16.748;2023-05-07T02:28:29;8.40;;;3.70;;
72095;SDS011;59968;51.084;16.748;2023-05-07T02:31:19;7.30;;;4.20;;
72095;SDS011;59968;51.084;16.748;2023-05-07T02:33:54;7.00;;;3.80;;
72095;SDS011;59968;51.084;16.748;2023-05-07T02:36:45;9.40;;;4.50;;
72095;SDS011;59968;51.084;16.748;2023-05-07T02:39:54;7.70;;;4.40;;
72095;SDS011;59968;51.084;16.748;2023-05-07T02:42:37;6.70;;;3.90;;
72095;SDS011;59968;51.084;16.748;2023-05-07T02:45:22;7.40;;;4.20;;
72095;SDS011;59968;51.084;16.748;2023-05-07T02:48:35;6.70;;;3.70;;
72095;SDS011;59968;51.084;16.748;2023-05-07T02:51:48;6.70;;;4.00;;
72095;SDS011;59968;51.084;16.748;2023-05-07T02:54:55;8.90;;;4.10;;
72095;SDS011;59968;51.084;16.748;2023-05-07T02:57:42;7.50;;;4.50;;
72095;SDS011;59968;51.084;16.748;2023-05-07T03:01:23;7.70;;;4.20;;
72095;SDS011;59968;51.084;16.748;2023-05-07T03:04:19;9.30;;;4.70;;
72095;SDS011;59968;51.084;16.748;2023-05-07T03:10:59;7.90;;;4.80;;
72095;SDS011;59968;51.084;16.748;2023-05-07T03:16:51;7.90;;;4.40;;
72095;SDS011;59968;51.084;16.748;2023-05-07T03:19:53;6.40;;;4.20;;
72095;SDS011;59968;51.084;16.748;2023-05-07T03:23:10;5.40;;;3.50;;
72095;SDS011;59968;51.084;16.748;2023-05-07T03:26:15;9.20;;;5.40;;
72095;SDS011;59968;51.084;16.748;2023-05-07T03:29:17;9.70;;;5.00;;
72095;SDS011;59968;51.084;16.748;2023-05-07T03:32:22;8.60;;;4.90;;
72095;SDS011;59968;51.084;16.748;2023-05-07T03:35:10;10.40;;;5.40;;
72095;SDS011;59968;51.084;16.748;2023-05-07T03:37:49;9.60;;;5.50;;
72095;SDS011;59968;51.084;16.748;2023-05-07T03:40:52;8.50;;;5.20;;
72095;SDS011;59968;51.084;16.748;2023-05-07T03:43:43;9.10;;;4.70;;
72095;SDS011;59968;51.084;16.748;2023-05-07T03:46:17;8.00;;;4.40;;
72095;SDS011;59968;51.084;16.748;2023-05-07T03:49:32;8.90;;;5.20;;
72095;SDS011;59968;51.084;16.748;2023-05-07T03:52:19;10.30;;;5.30;;
72095;SDS011;59968;51.084;16.748;2023-05-07T03:58:48;8.60;;;5.50;;
72095;SDS011;59968;51.084;16.748;2023-05-07T04:01:39;7.30;;;4.70;;
72095;SDS011;59968;51.084;16.748;2023-05-07T04:07:44;9.30;;;5.10;;
72095;SDS011;59968;51.084;16.748;2023-05-07T04:10:44;7.80;;;4.50;;
72095;SDS011;59968;51.084;16.748;2023-05-07T04:16:51;8.00;;;4.50;;
72095;SDS011;59968;51.084;16.748;2023-05-07T04:23:31;7.90;;;4.20;;
72095;SDS011;59968;51.084;16.748;2023-05-07T04:26:44;7.40;;;4.10;;
72095;SDS011;59968;51.084;16.748;2023-05-07T04:29:18;7.90;;;3.40;;
72095;SDS011;59968;51.084;16.748;2023-05-07T04:35:32;7.30;;;4.20;;
72095;SDS011;59968;51.084;16.748;2023-05-07T04:38:21;6.00;;;3.50;;
72095;SDS011;59968;51.084;16.748;2023-05-07T04:41:24;8.70;;;5.10;;
72095;SDS011;59968;51.084;16.748;2023-05-07T04:44:41;6.40;;;3.80;;
72095;SDS011;59968;51.084;16.748;2023-05-07T04:47:56;8.00;;;4.50;;
72095;SDS011;59968;51.084;16.748;2023-05-07T04:50:40;9.80;;;5.70;;
72095;SDS011;59968;51.084;16.748;2023-05-07T04:53:48;6.20;;;3.90;;
72095;SDS011;59968;51.084;16.748;2023-05-07T04:56:45;9.90;;;5.80;;
72095;SDS011;59968;51.084;16.748;2023-05-07T04:59:47;9.90;;;5.40;;
72095;SDS011;59968;51.084;16.748;2023-05-07T05:02:27;10.80;;;6.00;;
72095;SDS011;59968;51.084;16.748;2023-05-07T05:05:20;9.00;;;5.30;;
72095;SDS011;59968;51.084;16.748;2023-05-07T05:08:12;8.20;;;5.10;;
72095;SDS011;59968;51.084;16.748;2023-05-07T05:11:27;10.30;;;6.00;;
72095;SDS011;59968;51.084;16.748;2023-05-07T05:14:41;9.90;;;5.30;;
72095;SDS011;59968;51.084;16.748;2023-05-07T05:17:45;7.00;;;3.90;;
72095;SDS011;59968;51.084;16.748;2023-05-07T05:20:35;8.60;;;5.10;;
72095;SDS011;59968;51.084;16.748;2023-05-07T05:23:41;10.10;;;5.20;;
72095;SDS011;59968;51.084;16.748;2023-05-07T05:26:41;7.50;;;4.50;;
72095;SDS011;59968;51.084;16.748;2023-05-07T05:29:16;8.60;;;4.70;;
72095;SDS011;59968;51.084;16.748;2023-05-07T05:32:03;7.80;;;4.80;;
72095;SDS011;59968;51.084;16.748;2023-05-07T05:35:20;7.10;;;4.40;;
72095;SDS011;59968;51.084;16.748;2023-05-07T05:38:37;6.20;;;4.10;;
72095;SDS011;59968;51.084;16.748;2023-05-07T05:42:29;6.80;;;4.00;;
72095;SDS011;59968;51.084;16.748;2023-05-07T05:45:11;5.60;;;3.40;;
72095;SDS011;59968;51.084;16.748;2023-05-07T05:48:05;5.20;;;3.40;;
72095;SDS011;59968;51.084;16.748;2023-05-07T05:51:07;4.50;;;3.00;;
72095;SDS011;59968;51.084;16.748;2023-05-07T05:53:56;5.90;;;3.60;;
72095;SDS011;59968;51.084;16.748;2023-05-07T06:03:04;4.80;;;3.00;;
72095;SDS011;59968;51.084;16.748;2023-05-07T06:05:44;4.60;;;3.00;;
72095;SDS011;59968;51.084;16.748;2023-05-07T06:08:33;5.10;;;3.40;;
72095;SDS011;59968;51.084;16.748;2023-05-07T06:11:45;7.00;;;4.20;;
72095;SDS011;59968;51.084;16.748;2023-05-07T06:14:59;6.70;;;3.70;;
72095;SDS011;59968;51.084;16.748;2023-05-07T06:17:38;6.10;;;3.10;;
72095;SDS011;59968;51.084;16.748;2023-05-07T06:23:13;6.10;;;3.30;;
72095;SDS011;59968;51.084;16.748;2023-05-07T06:26:07;4.50;;;2.90;;
72095;SDS011;59968;51.084;16.748;2023-05-07T06:29:10;5.20;;;3.30;;
72095;SDS011;59968;51.084;16.748;2023-05-07T06:32:00;5.30;;;3.00;;
72095;SDS011;59968;51.084;16.748;2023-05-07T06:34:48;5.70;;;3.50;;
72095;SDS011;59968;51.084;16.748;2023-05-07T06:37:56;7.10;;;3.90;;
72095;SDS011;59968;51.084;16.748;2023-05-07T06:40:46;5.50;;;3.80;;
72095;SDS011;59968;51.084;16.748;2023-05-07T06:43:31;5.10;;;3.00;;
72095;SDS011;59968;51.084;16.748;2023-05-07T06:46:30;5.60;;;3.50;;
72095;SDS011;59968;51.084;16.748;2023-05-07T06:49:25;5.30;;;3.40;;
72095;SDS011;59968;51.084;16.748;2023-05-07T06:52:10;5.10;;;3.40;;
72095;SDS011;59968;51.084;16.748;2023-05-07T06:55:17;4.70;;;2.90;;
72095;SDS011;59968;51.084;16.748;2023-05-07T06:57:52;5.90;;;3.20;;
72095;SDS011;59968;51.084;16.748;2023-05-07T07:00:39;8.10;;;3.00;;
72095;SDS011;59968;51.084;16.748;2023-05-07T07:03:18;5.10;;;3.10;;
72095;SDS011;59968;51.084;16.748;2023-05-07T07:05:53;5.20;;;3.10;;
72095;SDS011;59968;51.084;16.748;2023-05-07T07:08:38;5.00;;;3.40;;
72095;SDS011;59968;51.084;16.748;2023-05-07T07:11:24;4.30;;;2.90;;
72095;SDS011;59968;51.084;16.748;2023-05-07T07:13:56;4.00;;;2.40;;
72095;SDS011;59968;51.084;16.748;2023-05-07T07:16:45;3.90;;;2.70;;
72095;SDS011;59968;51.084;16.748;2023-05-07T07:19:44;4.30;;;3.00;;
72095;SDS011;59968;51.084;16.748;2023-05-07T07:22:18;4.30;;;2.70;;
72095;SDS011;59968;51.084;16.748;2023-05-07T07:24:54;4.30;;;2.50;;
72095;SDS011;59968;51.084;16.748;2023-05-07T07:27:45;5.10;;;3.40;;
72095;SDS011;59968;51.084;16.748;2023-05-07T07:30:52;5.10;;;3.10;;
72095;SDS011;59968;51.084;16.748;2023-05-07T07:33:24;6.00;;;3.40;;
72095;SDS011;59968;51.084;16.748;2023-05-07T07:36:02;5.40;;;3.80;;
72095;SDS011;59968;51.084;16.748;2023-05-07T07:38:40;4.60;;;2.70;;
72095;SDS011;59968;51.084;16.748;2023-05-07T07:41:46;4.80;;;3.10;;
72095;SDS011;59968;51.084;16.748;2023-05-07T07:44:32;4.80;;;3.40;;
72095;SDS011;59968;51.084;16.748;2023-05-07T07:47:05;4.90;;;3.10;;
72095;SDS011;59968;51.084;16.748;2023-05-07T07:49:44;5.20;;;3.20;;
72095;SDS011;59968;51.084;16.748;2023-05-07T07:52:20;4.70;;;3.00;;
72095;SDS011;59968;51.084;16.748;2023-05-07T07:54:53;4.60;;;3.00;;
72095;SDS011;59968;51.084;16.748;2023-05-07T07:57:41;4.00;;;2.50;;
72095;SDS011;59968;51.084;16.748;2023-05-07T08:00:45;4.30;;;2.40;;
72095;SDS011;59968;51.084;16.748;2023-05-07T08:03:31;4.50;;;2.50;;
72095;SDS011;59968;51.084;16.748;2023-05-07T08:06:29;4.00;;;2.10;;
72095;SDS011;59968;51.084;16.748;2023-05-07T08:09:27;3.90;;;2.40;;
72095;SDS011;59968;51.084;16.748;2023-05-07T08:12:20;3.40;;;2.10;;
72095;SDS011;59968;51.084;16.748;2023-05-07T08:15:00;4.70;;;2.20;;
72095;SDS011;59968;51.084;16.748;2023-05-07T08:17:37;3.50;;;2.00;;
72095;SDS011;59968;51.084;16.748;2023-05-07T08:20:19;3.10;;;2.30;;
72095;SDS011;59968;51.084;16.748;2023-05-07T08:23:00;4.10;;;2.40;;
72095;SDS011;59968;51.084;16.748;2023-05-07T08:25:52;3.70;;;2.20;;
72095;SDS011;59968;51.084;16.748;2023-05-07T08:28:28;3.10;;;2.20;;
72095;SDS011;59968;51.084;16.748;2023-05-07T08:31:22;4.40;;;2.80;;
72095;SDS011;59968;51.084;16.748;2023-05-07T08:34:03;3.60;;;2.30;;
72095;SDS011;59968;51.084;16.748;2023-05-07T08:36:52;4.30;;;2.50;;
72095;SDS011;59968;51.084;16.748;2023-05-07T08:39:34;4.40;;;2.60;;
72095;SDS011;59968;51.084;16.748;2023-05-07T08:42:13;4.10;;;2.60;;
72095;SDS011;59968;51.084;16.748;2023-05-07T08:44:55;4.70;;;2.80;;
72095;SDS011;59968;51.084;16.748;2023-05-07T08:47:31;5.60;;;3.50;;
72095;SDS011;59968;51.084;16.748;2023-05-07T08:50:21;5.80;;;3.50;;
72095;SDS011;59968;51.084;16.748;2023-05-07T08:53:06;5.60;;;3.50;;
72095;SDS011;59968;51.084;16.748;2023-05-07T08:55:57;5.90;;;3.40;;
72095;SDS011;59968;51.084;16.748;2023-05-07T08:58:40;5.30;;;4.10;;
72095;SDS011;59968;51.084;16.748;2023-05-07T09:01:16;5.70;;;3.20;;
72095;SDS011;59968;51.084;16.748;2023-05-07T09:03:53;5.30;;;3.40;;
72095;SDS011;59968;51.084;16.748;2023-05-07T09:06:26;5.70;;;3.60;;
72095;SDS011;59968;51.084;16.748;2023-05-07T09:09:14;4.20;;;2.60;;
72095;SDS011;59968;51.084;16.748;2023-05-07T09:11:46;5.60;;;3.30;;
72095;SDS011;59968;51.084;16.748;2023-05-07T09:14:21;5.20;;;3.50;;
72095;SDS011;59968;51.084;16.748;2023-05-07T09:16:53;6.50;;;3.90;;
72095;SDS011;59968;51.084;16.748;2023-05-07T09:19:24;6.70;;;3.40;;
72095;SDS011;59968;51.084;16.748;2023-05-07T09:22:01;5.40;;;3.60;;
72095;SDS011;59968;51.084;16.748;2023-05-07T09:24:44;4.30;;;3.00;;
72095;SDS011;59968;51.084;16.748;2023-05-07T09:27:24;5.20;;;3.40;;
72095;SDS011;59968;51.084;16.748;2023-05-07T09:29:57;6.80;;;3.80;;
72095;SDS011;59968;51.084;16.748;2023-05-07T09:32:42;7.20;;;4.70;;
72095;SDS011;59968;51.084;16.748;2023-05-07T09:35:19;7.30;;;4.60;;
72095;SDS011;59968;51.084;16.748;2023-05-07T09:38:08;6.10;;;3.90;;
72095;SDS011;59968;51.084;16.748;2023-05-07T09:41:09;6.50;;;3.70;;
72095;SDS011;59968;51.084;16.748;2023-05-07T09:43:57;7.30;;;4.70;;
72095;SDS011;59968;51.084;16.748;2023-05-07T09:46:33;8.70;;;5.00;;
72095;SDS011;59968;51.084;16.748;2023-05-07T09:49:20;8.10;;;4.70;;
72095;SDS011;59968;51.084;16.748;2023-05-07T09:52:07;9.20;;;5.10;;
72095;SDS011;59968;51.084;16.748;2023-05-07T09:54:47;8.20;;;4.40;;
72095;SDS011;59968;51.084;16.748;2023-05-07T09:57:20;9.80;;;5.00;;
72095;SDS011;59968;51.084;16.748;2023-05-07T09:59:56;8.20;;;4.30;;
72095;SDS011;59968;51.084;16.748;2023-05-07T10:02:34;6.00;;;4.00;;
72095;SDS011;59968;51.084;16.748;2023-05-07T10:05:10;6.90;;;4.20;;
72095;SDS011;59968;51.084;16.748;2023-05-07T10:07:40;8.80;;;4.60;;
72095;SDS011;59968;51.084;16.748;2023-05-07T10:10:11;7.30;;;4.30;;
72095;SDS011;59968;51.084;16.748;2023-05-07T10:12:46;6.00;;;3.50;;
72095;SDS011;59968;51.084;16.748;2023-05-07T10:15:24;5.70;;;3.90;;
72095;SDS011;59968;51.084;16.748;2023-05-07T10:17:56;7.20;;;4.40;;
72095;SDS011;59968;51.084;16.748;2023-05-07T10:20:34;4.50;;;3.00;;
72095;SDS011;59968;51.084;16.748;2023-05-07T10:23:07;8.40;;;5.00;;
72095;SDS011;59968;51.084;16.748;2023-05-07T10:25:50;5.90;;;3.80;;
72095;SDS011;59968;51.084;16.748;2023-05-07T10:28:35;6.70;;;4.30;;
72095;SDS011;59968;51.084;16.748;2023-05-07T10:31:21;6.50;;;4.60;;
72095;SDS011;59968;51.084;16.748;2023-05-07T10:34:24;6.60;;;4.30;;
72095;SDS011;59968;51.084;16.748;2023-05-07T10:37:04;6.60;;;4.50;;
72095;SDS011;59968;51.084;16.748;2023-05-07T10:39:45;5.70;;;3.30;;
72095;SDS011;59968;51.084;16.748;2023-05-07T10:42:19;6.80;;;4.20;;
72095;SDS011;59968;51.084;16.748;2023-05-07T10:45:15;6.90;;;4.50;;
72095;SDS011;59968;51.084;16.748;2023-05-07T10:51:17;4.80;;;3.10;;
72095;SDS011;59968;51.084;16.748;2023-05-07T10:56:47;7.80;;;4.70;;
72095;SDS011;59968;51.084;16.748;2023-05-07T10:59:34;6.30;;;3.90;;
72095;SDS011;59968;51.084;16.748;2023-05-07T11:03:04;6.30;;;4.30;;
72095;SDS011;59968;51.084;16.748;2023-05-07T11:06:25;6.50;;;3.90;;
72095;SDS011;59968;51.084;16.748;2023-05-07T11:08:59;5.50;;;3.60;;
72095;SDS011;59968;51.084;16.748;2023-05-07T11:11:48;5.80;;;3.90;;
72095;SDS011;59968;51.084;16.748;2023-05-07T11:14:43;5.60;;;4.10;;
72095;SDS011;59968;51.084;16.748;2023-05-07T11:17:24;5.20;;;3.30;;
72095;SDS011;59968;51.084;16.748;2023-05-07T11:20:08;5.40;;;3.70;;
72095;SDS011;59968;51.084;16.748;2023-05-07T11:22:56;6.30;;;3.90;;
72095;SDS011;59968;51.084;16.748;2023-05-07T11:25:43;6.40;;;3.70;;
72095;SDS011;59968;51.084;16.748;2023-05-07T11:28:22;6.40;;;3.70;;
72095;SDS011;59968;51.084;16.748;2023-05-07T11:31:03;3.90;;;2.70;;
72095;SDS011;59968;51.084;16.748;2023-05-07T11:33:44;5.50;;;3.40;;
72095;SDS011;59968;51.084;16.748;2023-05-07T11:36:24;4.50;;;3.30;;
72095;SDS011;59968;51.084;16.748;2023-05-07T11:39:27;6.30;;;3.60;;
72095;SDS011;59968;51.084;16.748;2023-05-07T11:42:33;5.50;;;3.80;;
72095;SDS011;59968;51.084;16.748;2023-05-07T11:45:29;4.40;;;3.10;;
72095;SDS011;59968;51.084;16.748;2023-05-07T11:48:09;5.10;;;3.40;;
72095;SDS011;59968;51.084;16.748;2023-05-07T11:51:00;7.90;;;3.60;;
72095;SDS011;59968;51.084;16.748;2023-05-07T11:54:15;5.20;;;3.30;;
72095;SDS011;59968;51.084;16.748;2023-05-07T11:56:52;4.60;;;3.00;;
72095;SDS011;59968;51.084;16.748;2023-05-07T11:59:41;5.20;;;3.20;;
72095;SDS011;59968;51.084;16.748;2023-05-07T12:02:19;4.80;;;3.60;;
72095;SDS011;59968;51.084;16.748;2023-05-07T12:05:10;4.20;;;2.80;;
72095;SDS011;59968;51.084;16.748;2023-05-07T12:07:48;5.10;;;3.40;;
72095;SDS011;59968;51.084;16.748;2023-05-07T12:10:30;4.10;;;2.80;;
72095;SDS011;59968;51.084;16.748;2023-05-07T12:13:00;5.60;;;3.40;;
72095;SDS011;59968;51.084;16.748;2023-05-07T12:15:53;5.90;;;3.40;;
72095;SDS011;59968;51.084;16.748;2023-05-07T12:18:29;4.80;;;3.30;;
72095;SDS011;59968;51.084;16.748;2023-05-07T12:21:14;5.30;;;3.70;;
72095;SDS011;59968;51.084;16.748;2023-05-07T12:23:47;8.50;;;4.40;;
72095;SDS011;59968;51.084;16.748;2023-05-07T12:26:26;4.70;;;3.20;;
72095;SDS011;59968;51.084;16.748;2023-05-07T12:29:08;5.30;;;3.10;;
72095;SDS011;59968;51.084;16.748;2023-05-07T12:31:45;4.90;;;3.30;;
72095;SDS011;59968;51.084;16.748;2023-05-07T12:34:22;4.70;;;3.20;;
72095;SDS011;59968;51.084;16.748;2023-05-07T12:37:07;5.80;;;2.90;;
72095;SDS011;59968;51.084;16.748;2023-05-07T12:39:47;4.60;;;3.10;;
72095;SDS011;59968;51.084;16.748;2023-05-07T12:42:43;4.90;;;3.50;;
72095;SDS011;59968;51.084;16.748;2023-05-07T12:45:41;4.70;;;3.20;;
72095;SDS011;59968;51.084;16.748;2023-05-07T12:48:21;4.70;;;3.10;;
72095;SDS011;59968;51.084;16.748;2023-05-07T12:51:05;4.50;;;3.20;;
72095;SDS011;59968;51.084;16.748;2023-05-07T12:53:55;4.80;;;3.10;;
72095;SDS011;59968;51.084;16.748;2023-05-07T12:59:39;5.00;;;3.20;;
72095;SDS011;59968;51.084;16.748;2023-05-07T13:02:19;5.20;;;3.70;;
72095;SDS011;59968;51.084;16.748;2023-05-07T13:05:22;6.40;;;4.30;;
72095;SDS011;59968;51.084;16.748;2023-05-07T13:08:03;6.80;;;4.30;;
72095;SDS011;59968;51.084;16.748;2023-05-07T13:11:02;5.30;;;3.50;;
72095;SDS011;59968;51.084;16.748;2023-05-07T13:13:37;4.90;;;3.50;;
72095;SDS011;59968;51.084;16.748;2023-05-07T13:16:10;5.50;;;3.80;;
72095;SDS011;59968;51.084;16.748;2023-05-07T13:18:43;6.40;;;3.90;;
72095;SDS011;59968;51.084;16.748;2023-05-07T13:21:28;6.10;;;4.00;;
72095;SDS011;59968;51.084;16.748;2023-05-07T13:24:06;5.90;;;3.80;;
72095;SDS011;59968;51.084;16.748;2023-05-07T13:26:52;6.50;;;4.30;;
72095;SDS011;59968;51.084;16.748;2023-05-07T13:29:38;8.10;;;5.80;;
72095;SDS011;59968;51.084;16.748;2023-05-07T13:32:16;8.50;;;5.70;;
72095;SDS011;59968;51.084;16.748;2023-05-07T13:35:12;6.50;;;4.40;;
72095;SDS011;59968;51.084;16.748;2023-05-07T13:37:49;5.30;;;3.70;;
72095;SDS011;59968;51.084;16.748;2023-05-07T13:40:30;5.20;;;3.60;;
72095;SDS011;59968;51.084;16.748;2023-05-07T13:43:08;5.50;;;3.60;;
72095;SDS011;59968;51.084;16.748;2023-05-07T13:45:48;5.90;;;3.80;;
72095;SDS011;59968;51.084;16.748;2023-05-07T13:48:21;5.70;;;3.90;;
72095;SDS011;59968;51.084;16.748;2023-05-07T13:50:53;5.90;;;3.90;;
72095;SDS011;59968;51.084;16.748;2023-05-07T13:53:26;5.80;;;3.80;;
72095;SDS011;59968;51.084;16.748;2023-05-07T13:55:57;6.80;;;3.60;;
72095;SDS011;59968;51.084;16.748;2023-05-07T13:58:30;6.90;;;4.50;;
72095;SDS011;59968;51.084;16.748;2023-05-07T14:01:02;7.10;;;4.20;;
72095;SDS011;59968;51.084;16.748;2023-05-07T14:03:37;6.40;;;4.10;;
72095;SDS011;59968;51.084;16.748;2023-05-07T14:06:09;5.70;;;4.00;;
72095;SDS011;59968;51.084;16.748;2023-05-07T14:09:03;6.60;;;4.40;;
72095;SDS011;59968;51.084;16.748;2023-05-07T14:11:35;5.80;;;4.40;;
72095;SDS011;59968;51.084;16.748;2023-05-07T14:14:24;7.30;;;4.50;;
72095;SDS011;59968;51.084;16.748;2023-05-07T14:16:56;6.40;;;4.50;;
72095;SDS011;59968;51.084;16.748;2023-05-07T14:19:50;4.70;;;3.60;;
72095;SDS011;59968;51.084;16.748;2023-05-07T14:22:24;5.10;;;3.50;;
72095;SDS011;59968;51.084;16.748;2023-05-07T14:24:56;5.30;;;3.50;;
72095;SDS011;59968;51.084;16.748;2023-05-07T14:27:40;5.20;;;3.60;;
72095;SDS011;59968;51.084;16.748;2023-05-07T14:30:10;5.20;;;3.70;;
72095;SDS011;59968;51.084;16.748;2023-05-07T14:32:46;5.90;;;4.00;;
72095;SDS011;59968;51.084;16.748;2023-05-07T14:35:23;5.40;;;3.90;;
72095;SDS011;59968;51.084;16.748;2023-05-07T14:37:57;7.00;;;4.60;;
72095;SDS011;59968;51.084;16.748;2023-05-07T14:40:30;7.30;;;4.40;;
72095;SDS011;59968;51.084;16.748;2023-05-07T14:43:03;6.90;;;4.00;;
72095;SDS011;59968;51.084;16.748;2023-05-07T14:45:56;7.00;;;4.20;;
72095;SDS011;59968;51.084;16.748;2023-05-07T14:48:30;6.30;;;4.10;;
72095;SDS011;59968;51.084;16.748;2023-05-07T14:51:03;6.90;;;4.60;;
72095;SDS011;59968;51.084;16.748;2023-05-07T14:53:45;6.20;;;3.90;;
72095;SDS011;59968;51.084;16.748;2023-05-07T14:56:30;6.50;;;3.40;;
72095;SDS011;59968;51.084;16.748;2023-05-07T14:59:07;5.50;;;3.60;;
72095;SDS011;59968;51.084;16.748;2023-05-07T15:01:43;4.90;;;3.50;;
72095;SDS011;59968;51.084;16.748;2023-05-07T15:04:18;4.50;;;2.60;;
72095;SDS011;59968;51.084;16.748;2023-05-07T15:06:50;4.60;;;3.20;;
72095;SDS011;59968;51.084;16.748;2023-05-07T15:09:24;5.20;;;3.70;;
72095;SDS011;59968;51.084;16.748;2023-05-07T15:14:53;5.30;;;3.60;;
72095;SDS011;59968;51.084;16.748;2023-05-07T15:17:24;7.10;;;4.30;;
72095;SDS011;59968;51.084;16.748;2023-05-07T15:20:01;7.70;;;4.30;;
72095;SDS011;59968;51.084;16.748;2023-05-07T15:22:33;7.00;;;4.70;;
72095;SDS011;59968;51.084;16.748;2023-05-07T15:25:27;5.90;;;4.20;;
72095;SDS011;59968;51.084;16.748;2023-05-07T15:28:06;6.40;;;4.30;;
72095;SDS011;59968;51.084;16.748;2023-05-07T15:30:36;7.70;;;4.60;;
72095;SDS011;59968;51.084;16.748;2023-05-07T15:33:06;8.80;;;5.00;;
72095;SDS011;59968;51.084;16.748;2023-05-07T15:35:42;8.90;;;4.90;;
72095;SDS011;59968;51.084;16.748;2023-05-07T15:38:39;6.70;;;4.40;;
72095;SDS011;59968;51.084;16.748;2023-05-07T15:41:11;6.20;;;4.20;;
72095;SDS011;59968;51.084;16.748;2023-05-07T15:43:45;5.60;;;3.80;;
72095;SDS011;59968;51.084;16.748;2023-05-07T15:46:18;7.10;;;3.60;;
72095;SDS011;59968;51.084;16.748;2023-05-07T15:48:52;4.80;;;3.10;;
72095;SDS011;59968;51.084;16.748;2023-05-07T15:51:26;4.90;;;3.50;;
72095;SDS011;59968;51.084;16.748;2023-05-07T15:53:57;7.20;;;3.60;;
72095;SDS011;59968;51.084;16.748;2023-05-07T15:56:27;5.80;;;4.20;;
72095;SDS011;59968;51.084;16.748;2023-05-07T15:58:57;5.30;;;3.50;;
72095;SDS011;59968;51.084;16.748;2023-05-07T16:01:44;4.70;;;3.50;;
72095;SDS011;59968;51.084;16.748;2023-05-07T16:04:29;5.30;;;3.60;;
72095;SDS011;59968;51.084;16.748;2023-05-07T16:07:10;6.70;;;3.80;;
72095;SDS011;59968;51.084;16.748;2023-05-07T16:09:45;6.00;;;4.20;;
72095;SDS011;59968;51.084;16.748;2023-05-07T16:12:18;6.60;;;3.80;;
72095;SDS011;59968;51.084;16.748;2023-05-07T16:14:51;5.50;;;3.40;;
72095;SDS011;59968;51.084;16.748;2023-05-07T16:17:25;4.80;;;3.20;;
72095;SDS011;59968;51.084;16.748;2023-05-07T16:20:17;5.40;;;3.60;;
72095;SDS011;59968;51.084;16.748;2023-05-07T16:22:50;5.90;;;3.60;;
72095;SDS011;59968;51.084;16.748;2023-05-07T16:25:25;6.60;;;4.00;;
72095;SDS011;59968;51.084;16.748;2023-05-07T16:27:55;6.20;;;4.00;;
72095;SDS011;59968;51.084;16.748;2023-05-07T16:30:28;7.10;;;4.00;;
72095;SDS011;59968;51.084;16.748;2023-05-07T16:32:58;6.00;;;4.10;;
72095;SDS011;59968;51.084;16.748;2023-05-07T16:35:29;6.40;;;4.00;;
72095;SDS011;59968;51.084;16.748;2023-05-07T16:38:06;5.80;;;4.30;;
72095;SDS011;59968;51.084;16.748;2023-05-07T16:40:38;5.60;;;4.00;;
72095;SDS011;59968;51.084;16.748;2023-05-07T16:43:26;6.90;;;4.80;;
72095;SDS011;59968;51.084;16.748;2023-05-07T16:46:02;6.00;;;4.40;;
72095;SDS011;59968;51.084;16.748;2023-05-07T16:48:39;7.90;;;4.40;;
72095;SDS011;59968;51.084;16.748;2023-05-07T16:51:09;6.50;;;4.50;;
72095;SDS011;59968;51.084;16.748;2023-05-07T16:53:44;7.70;;;4.50;;
72095;SDS011;59968;51.084;16.748;2023-05-07T16:56:17;7.50;;;4.70;;
72095;SDS011;59968;51.084;16.748;2023-05-07T16:59:02;8.50;;;5.00;;
72095;SDS011;59968;51.084;16.748;2023-05-07T17:01:34;8.30;;;5.30;;
72095;SDS011;59968;51.084;16.748;2023-05-07T17:04:05;7.80;;;5.00;;
72095;SDS011;59968;51.084;16.748;2023-05-07T17:06:38;7.40;;;4.60;;
72095;SDS011;59968;51.084;16.748;2023-05-07T17:09:11;7.60;;;5.10;;
72095;SDS011;59968;51.084;16.748;2023-05-07T17:11:47;7.90;;;5.00;;
72095;SDS011;59968;51.084;16.748;2023-05-07T17:14:25;7.40;;;4.60;;
72095;SDS011;59968;51.084;16.748;2023-05-07T17:16:58;7.20;;;4.10;;
72095;SDS011;59968;51.084;16.748;2023-05-07T17:19:36;6.80;;;4.50;;
72095;SDS011;59968;51.084;16.748;2023-05-07T17:22:20;7.40;;;4.70;;
72095;SDS011;59968;51.084;16.748;2023-05-07T17:24:56;6.00;;;3.90;;